Time;durP1;ratioP1;P1;durP2;ratioP2;P2;SDS_P1;SDS_P2;PMS_P1;PMS_P2;Temp;Humidity;BMP_temperature;BMP_pressure;BME280_temperature;BME280_humidity;BME280_pressure;Samples;Min_cycle;Max_cycle;Signal;HPM_P1;HPM_P2
2021/03/11 00:02:20;;;;;;;;;;;6.20;99.90;;;;;;5035969;28;19920;-89
2021/03/11 00:05:08;;;;;;;;;;;6.20;99.90;;;;;;5053259;28;20346;-88
2021/03/11 00:07:37;;;;;;;;;;;6.30;99.90;;;;;;5019857;28;20267;-87
2021/03/11 00:10:10;;;;;;;;;;;6.20;99.90;;;;;;5048975;28;20317;-88
2021/03/11 00:12:42;;;;;;;;;;;6.30;99.90;;;;;;5053050;28;20369;-87
2021/03/11 00:15:15;;;;;;;;;;;6.20;99.90;;;;;;5053249;28;19943;-87
2021/03/11 00:17:43;;;;;;;;;;;6.30;99.90;;;;;;5053399;28;19909;-87
2021/03/11 00:20:13;;;;;;;;;;;6.30;99.90;;;;;;5052669;28;19972;-87
2021/03/11 00:22:44;;;;;;;;;;;6.30;99.90;;;;;;5052582;28;19913;-87
2021/03/11 00:25:16;;;;;;;;;;;6.30;99.90;;;;;;5050686;28;19908;-89
2021/03/11 00:27:45;;;;;;;;;;;6.30;99.90;;;;;;5054055;28;19909;-89
2021/03/11 00:30:21;;;;;;;;;;;6.30;99.90;;;;;;5054374;28;19916;-88
2021/03/11 00:32:51;;;;;;;;;;;6.40;99.90;;;;;;5060053;28;19909;-87
2021/03/11 00:35:30;;;;;;;;;;;6.40;99.90;;;;;;5079801;28;19913;-90
2021/03/11 00:37:56;;;;;;;;;;;6.40;99.90;;;;;;5079886;28;19912;-90
2021/03/11 00:40:32;;;;;;;;;;;6.40;99.90;;;;;;5080852;28;20342;-90
2021/03/11 00:42:59;;;;;;;;;;;6.40;99.90;;;;;;5081865;28;19912;-89
2021/03/11 00:45:25;;;;;;;;;;;6.40;99.90;;;;;;5081661;28;19908;-89
2021/03/11 00:47:56;;;;;;;;;;;6.40;99.90;;;;;;5081377;28;20337;-89
2021/03/11 00:50:25;;;;;;;;;;;6.50;99.90;;;;;;5081013;28;19915;-88
2021/03/11 00:53:11;;;;;;;;;;;6.50;99.90;;;;;;5099261;28;20363;-90
2021/03/11 00:55:42;;;;;;;;;;;6.50;99.90;;;;;;5081198;28;19916;-89
2021/03/11 00:58:20;;;;;;;;;;;6.50;99.90;;;;;;5078620;28;20373;-88
2021/03/11 01:00:51;;;;;;;;;;;6.50;99.90;;;;;;5079051;28;20019;-89
2021/03/11 01:03:20;;;;;;;;;;;6.60;99.90;;;;;;5082219;28;19920;-87
2021/03/11 01:05:49;;;;;;;;;;;6.60;99.90;;;;;;5079034;28;19943;-88
2021/03/11 01:08:17;;;;;;;;;;;6.60;99.90;;;;;;5083693;28;19927;-89
2021/03/11 01:10:43;;;;;;;;;;;6.70;99.90;;;;;;5085422;28;20068;-88
2021/03/11 01:13:16;;;;;;;;;;;6.60;99.90;;;;;;5077991;28;20376;-89
2021/03/11 01:15:45;;;;;;;;;;;6.70;99.90;;;;;;5037062;28;19909;-90
2021/03/11 01:18:33;;;;;;;;;;;6.70;99.90;;;;;;5037067;28;19924;-86
2021/03/11 01:21:05;;;;;;;;;;;6.80;99.90;;;;;;5019296;28;19917;-89
2021/03/11 01:23:46;;;;;;;;;;;6.80;99.90;;;;;;5035598;28;19980;-88
2021/03/11 01:26:11;;;;;;;;;;;6.80;99.90;;;;;;5036212;28;19909;-88
2021/03/11 01:28:37;;;;;;;;;;;6.90;99.90;;;;;;5036143;28;19955;-90
2021/03/11 01:31:10;;;;;;;;;;;6.90;99.90;;;;;;5036442;28;19916;-87
2021/03/11 01:33:42;;;;;;;;;;;6.90;99.90;;;;;;5036054;28;20476;-85
2021/03/11 01:36:11;;;;;;;;;;;6.90;99.90;;;;;;5035866;28;19910;-89
2021/03/11 01:38:53;;;;;;;;;;;6.90;99.90;;;;;;5033437;28;19917;-88
2021/03/11 01:41:21;;;;;;;;;;;6.90;99.90;;;;;;5033665;28;19928;-88
2021/03/11 01:43:53;;;;;;;;;;;6.90;99.90;;;;;;5036272;28;19920;-89
2021/03/11 01:46:23;;;;;;;;;;;6.90;99.90;;;;;;5050803;28;19934;-88
2021/03/11 01:48:51;;;;;;;;;;;6.90;99.90;;;;;;5081121;28;19915;-89
2021/03/11 01:51:19;;;;;;;;;;;6.90;99.90;;;;;;5078331;28;19994;-89
2021/03/11 01:53:45;;;;;;;;;;;6.90;99.90;;;;;;5099057;28;19920;-89
2021/03/11 01:56:15;;;;;;;;;;;6.90;99.90;;;;;;5056105;28;20366;-89
2021/03/11 01:58:50;;;;;;;;;;;6.90;99.90;;;;;;5038976;28;20378;-87
2021/03/11 02:01:16;;;;;;;;;;;6.90;99.90;;;;;;5037445;28;19912;-88
2021/03/11 02:03:47;;;;;;;;;;;6.90;99.90;;;;;;5039176;28;19940;-90
2021/03/11 02:06:20;;;;;;;;;;;7.00;99.90;;;;;;5054909;28;19910;-89
2021/03/11 02:09:05;;;;;;;;;;;7.00;99.90;;;;;;5072340;28;19936;-89
2021/03/11 02:11:34;;;;;;;;;;;7.00;99.90;;;;;;5076450;28;19912;-87
2021/03/11 02:14:13;;;;;;;;;;;7.10;99.90;;;;;;5073542;28;20003;-88
2021/03/11 02:16:55;;;;;;;;;;;7.10;99.90;;;;;;5076229;28;19920;-89
2021/03/11 02:19:27;;;;;;;;;;;7.10;99.90;;;;;;5059968;28;19908;-89
2021/03/11 02:22:13;;;;;;;;;;;7.20;99.90;;;;;;5075769;28;20037;-89
2021/03/11 02:25:15;;;;;;;;;;;7.20;99.90;;;;;;5076751;28;19999;-89
2021/03/11 02:27:49;;;;;;;;;;;7.20;99.90;;;;;;5091380;28;19908;-90
2021/03/11 02:30:22;;;;;;;;;;;7.30;99.90;;;;;;5109108;28;19908;-89
2021/03/11 02:32:51;;;;;;;;;;;7.30;99.90;;;;;;5109708;28;19923;-89
2021/03/11 02:35:20;;;;;;;;;;;7.30;99.90;;;;;;5113517;28;20369;-88
2021/03/11 02:37:53;;;;;;;;;;;7.30;99.90;;;;;;5094602;28;19919;-88
2021/03/11 02:40:29;;;;;;;;;;;7.30;99.90;;;;;;5090531;28;19959;-89
2021/03/11 02:43:15;;;;;;;;;;;7.30;99.90;;;;;;5076168;28;19966;-87
2021/03/11 02:45:48;;;;;;;;;;;7.30;99.90;;;;;;5074202;28;20332;-87
2021/03/11 02:48:17;;;;;;;;;;;7.30;99.90;;;;;;5058293;28;19915;-87
2021/03/11 02:50:46;;;;;;;;;;;7.30;99.90;;;;;;5060389;28;19908;-86
2021/03/11 02:53:25;;;;;;;;;;;7.30;99.90;;;;;;5059616;28;19962;-88
2021/03/11 02:55:56;;;;;;;;;;;7.30;99.90;;;;;;5058045;28;19928;-88
2021/03/11 02:58:22;;;;;;;;;;;7.40;99.90;;;;;;5074439;28;20495;-87
2021/03/11 03:00:51;;;;;;;;;;;7.40;99.90;;;;;;5059406;28;20011;-89
2021/03/11 03:03:23;;;;;;;;;;;7.40;99.90;;;;;;5058711;28;19912;-89
2021/03/11 03:05:51;;;;;;;;;;;7.40;99.90;;;;;;5059893;28;19916;-87
2021/03/11 03:08:20;;;;;;;;;;;7.50;99.90;;;;;;5058392;28;19925;-88
2021/03/11 03:10:47;;;;;;;;;;;7.50;99.90;;;;;;5064381;28;19908;-87
2021/03/11 03:13:14;;;;;;;;;;;7.50;99.90;;;;;;5078763;28;19911;-87
2021/03/11 03:15:40;;;;;;;;;;;7.50;99.90;;;;;;5106780;28;19908;-88
2021/03/11 03:18:06;;;;;;;;;;;7.60;99.90;;;;;;5111716;28;19977;-89
2021/03/11 03:20:41;;;;;;;;;;;7.60;99.90;;;;;;5111929;28;19966;-89
2021/03/11 03:23:11;;;;;;;;;;;7.70;99.90;;;;;;5109037;28;19927;-88
2021/03/11 03:25:49;;;;;;;;;;;7.70;99.90;;;;;;5112920;28;19912;-87
2021/03/11 03:28:27;;;;;;;;;;;7.70;99.90;;;;;;5112370;28;19908;-89
2021/03/11 03:30:56;;;;;;;;;;;7.80;99.90;;;;;;5095139;28;19958;-88
2021/03/11 03:33:24;;;;;;;;;;;7.70;99.90;;;;;;5107728;28;19908;-89
2021/03/11 03:35:50;;;;;;;;;;;7.70;99.90;;;;;;5112112;28;19908;-89
2021/03/11 03:38:16;;;;;;;;;;;7.70;99.90;;;;;;5112178;28;20085;-87
2021/03/11 03:40:45;;;;;;;;;;;7.70;99.90;;;;;;5112289;28;19949;-87
2021/03/11 03:43:24;;;;;;;;;;;7.60;99.90;;;;;;5112313;28;19912;-87
2021/03/11 03:45:55;;;;;;;;;;;7.60;99.90;;;;;;5107487;28;19908;-88
2021/03/11 03:48:28;;;;;;;;;;;7.60;99.90;;;;;;5111942;28;20317;-88
2021/03/11 03:50:57;;;;;;;;;;;7.60;99.90;;;;;;5112666;28;20364;-87
2021/03/11 03:53:42;;;;;;;;;;;7.60;99.90;;;;;;5096152;28;19915;-88
2021/03/11 03:56:32;;;;;;;;;;;7.60;99.90;;;;;;5112252;28;19915;-88
2021/03/11 03:59:05;;;;;;;;;;;7.60;99.90;;;;;;5078196;28;20353;-87
2021/03/11 04:02:00;;;;;;;;;;;7.60;99.90;;;;;;5096386;28;20372;-87
2021/03/11 04:04:30;;;;;;;;;;;7.60;99.90;;;;;;5111305;28;19912;-88
2021/03/11 04:06:58;;;;;;;;;;;7.60;99.90;;;;;;5110338;28;20373;-88
2021/03/11 04:09:27;;;;;;;;;;;7.60;99.90;;;;;;5079657;28;19912;-87
2021/03/11 04:11:56;;;;;;;;;;;7.60;99.90;;;;;;5099821;28;19951;-87
2021/03/11 04:14:26;;;;;;;;;;;7.70;99.90;;;;;;5082465;28;19908;-87
2021/03/11 04:16:58;;;;;;;;;;;7.70;99.90;;;;;;5080773;28;20021;-88
2021/03/11 04:19:29;;;;;;;;;;;7.70;99.90;;;;;;5081857;28;19912;-87
2021/03/11 04:22:03;;;;;;;;;;;7.70;99.90;;;;;;5081404;28;19924;-87
2021/03/11 04:24:32;;;;;;;;;;;7.70;99.90;;;;;;5091017;28;19908;-87
2021/03/11 04:27:13;;;;;;;;;;;7.80;99.90;;;;;;5100623;28;19959;-87
2021/03/11 04:29:48;;;;;;;;;;;7.80;99.90;;;;;;5092820;28;19916;-86
2021/03/11 04:32:20;;;;;;;;;;;7.80;99.90;;;;;;5099399;28;19947;-87
2021/03/11 04:34:49;;;;;;;;;;;7.80;99.90;;;;;;5082038;28;19914;-88
2021/03/11 04:37:18;;;;;;;;;;;7.80;99.90;;;;;;5080360;28;19908;-87
2021/03/11 04:39:47;;;;;;;;;;;7.90;99.90;;;;;;5081314;28;19908;-88
2021/03/11 04:42:14;;;;;;;;;;;7.90;99.90;;;;;;5081851;28;19924;-86
2021/03/11 04:44:44;;;;;;;;;;;7.90;99.90;;;;;;5080921;28;19916;-87
2021/03/11 04:47:15;;;;;;;;;;;8.00;99.90;;;;;;5080557;28;19915;-87
2021/03/11 04:49:56;;;;;;;;;;;;;;;;;;;;;
2021/03/11 04:52:26;;;;;;;;;;;8.00;99.90;;;;;;5100090;28;19908;-88
2021/03/11 04:54:52;;;;;;;;;;;8.00;99.90;;;;;;5096875;28;19908;-86
2021/03/11 04:57:18;;;;;;;;;;;8.00;99.90;;;;;;5080343;28;19908;-88
2021/03/11 04:59:44;;;;;;;;;;;8.10;99.90;;;;;;5080584;28;19908;-89
2021/03/11 05:02:14;;;;;;;;;;;8.10;99.90;;;;;;5080900;28;19923;-88
2021/03/11 05:04:46;;;;;;;;;;;8.20;99.90;;;;;;5079244;28;19938;-87
2021/03/11 05:07:18;;;;;;;;;;;8.20;99.90;;;;;;5078134;28;19924;-88
2021/03/11 05:09:44;;;;;;;;;;;8.30;99.90;;;;;;5078850;28;19999;-87
2021/03/11 05:12:12;;;;;;;;;;;8.30;99.90;;;;;;5094453;28;19959;-87
2021/03/11 05:14:56;;;;;;;;;;;8.30;99.90;;;;;;5097907;28;19908;-88
2021/03/11 05:17:27;;;;;;;;;;;8.30;99.90;;;;;;5080311;28;19908;-87
2021/03/11 05:19:56;;;;;;;;;;;8.40;99.90;;;;;;5094847;28;19908;-88
2021/03/11 05:22:25;;;;;;;;;;;8.40;99.90;;;;;;5079538;28;19916;-88
2021/03/11 05:24:56;;;;;;;;;;;8.40;99.90;;;;;;5080005;28;19915;-88
2021/03/11 05:27:22;;;;;;;;;;;8.50;99.90;;;;;;5080924;28;19934;-87
2021/03/11 05:29:48;;;;;;;;;;;8.50;99.90;;;;;;5095449;28;19908;-88
2021/03/11 05:32:13;;;;;;;;;;;8.60;99.90;;;;;;5080086;28;19930;-87
2021/03/11 05:34:45;;;;;;;;;;;8.60;99.90;;;;;;5080648;28;20344;-87
2021/03/11 05:37:10;;;;;;;;;;;8.60;99.90;;;;;;5081357;28;19908;-88
2021/03/11 05:39:39;;;;;;;;;;;8.70;99.90;;;;;;5081696;28;19912;-88
2021/03/11 05:42:09;;;;;;;;;;;8.70;99.90;;;;;;5079468;28;20269;-88
2021/03/11 05:44:41;;;;;;;;;;;8.70;99.90;;;;;;5078483;28;19962;-88
2021/03/11 05:47:09;;;;;;;;;;;8.70;99.90;;;;;;5083509;28;20007;-88
2021/03/11 05:49:44;;;;;;;;;;;8.70;99.90;;;;;;5085182;28;20404;-88
2021/03/11 05:52:17;;;;;;;;;;;8.60;99.90;;;;;;5080667;28;19908;-89
2021/03/11 05:55:00;;;;;;;;;;;8.60;99.90;;;;;;5079978;28;19911;-87
2021/03/11 05:57:34;;;;;;;;;;;8.60;99.90;;;;;;5078872;28;20054;-88
2021/03/11 06:00:03;;;;;;;;;;;8.70;99.90;;;;;;5095598;28;19962;-89
2021/03/11 06:02:32;;;;;;;;;;;8.60;99.90;;;;;;5097630;28;19927;-87
2021/03/11 06:05:01;;;;;;;;;;;8.60;99.90;;;;;;5090459;28;19908;-88
2021/03/11 06:07:30;;;;;;;;;;;8.60;99.90;;;;;;5089301;28;20406;-87
2021/03/11 06:10:07;;;;;;;;;;;8.70;99.90;;;;;;5106386;28;19958;-87
2021/03/11 06:12:36;;;;;;;;;;;8.70;99.90;;;;;;5107489;28;19912;-87
2021/03/11 06:15:22;;;;;;;;;;;8.70;99.90;;;;;;5092550;28;19951;-88
2021/03/11 06:17:54;;;;;;;;;;;8.80;99.90;;;;;;5082123;28;19909;-87
2021/03/11 06:20:25;;;;;;;;;;;8.80;99.90;;;;;;5093474;28;19908;-87
2021/03/11 06:22:55;;;;;;;;;;;8.80;99.90;;;;;;5093060;28;19940;-87
2021/03/11 06:25:41;;;;;;;;;;;8.80;99.90;;;;;;5091002;28;19967;-88
2021/03/11 06:28:18;;;;;;;;;;;8.80;99.90;;;;;;5094247;28;19916;-88
2021/03/11 06:30:47;;;;;;;;;;;8.80;99.90;;;;;;5080239;28;19908;-88
2021/03/11 06:33:32;;;;;;;;;;;8.80;99.90;;;;;;5077795;28;19915;-89
2021/03/11 06:36:17;;;;;;;;;;;8.90;99.90;;;;;;5080233;28;19908;-88
2021/03/11 06:38:46;;;;;;;;;;;9.00;99.90;;;;;;5080062;28;19908;-88
2021/03/11 06:41:22;;;;;;;;;;;9.10;99.90;;;;;;5079883;28;19999;-89
2021/03/11 06:43:51;;;;;;;;;;;9.10;99.90;;;;;;5080694;28;20011;-89
2021/03/11 06:46:31;;;;;;;;;;;9.20;99.90;;;;;;5079416;28;19916;-87
2021/03/11 06:49:10;;;;;;;;;;;9.20;99.90;;;;;;5079410;28;19920;-88
2021/03/11 06:51:42;;;;;;;;;;;9.20;99.90;;;;;;5078320;28;19994;-89
2021/03/11 06:54:14;;;;;;;;;;;9.30;99.90;;;;;;5078669;28;20012;-88
2021/03/11 06:56:46;;;;;;;;;;;9.30;99.90;;;;;;5077235;28;20054;-90
2021/03/11 06:59:37;;;;;;;;;;;9.40;99.90;;;;;;5092199;28;20322;-88
2021/03/11 07:02:17;;;;;;;;;;;9.40;99.90;;;;;;5096210;28;20007;-88
2021/03/11 07:05:00;;;;;;;;;;;9.50;99.90;;;;;;5096995;28;20003;-89
2021/03/11 07:07:34;;;;;;;;;;;9.50;99.90;;;;;;5095425;28;19920;-88
2021/03/11 07:10:03;;;;;;;;;;;9.50;99.90;;;;;;5092342;28;19912;-89
2021/03/11 07:12:48;;;;;;;;;;;9.60;99.90;;;;;;5083394;28;19912;-87
2021/03/11 07:15:18;;;;;;;;;;;9.50;99.90;;;;;;5070684;28;19912;-88
2021/03/11 07:17:54;;;;;;;;;;;9.60;99.90;;;;;;5077200;28;19942;-87
2021/03/11 07:20:37;;;;;;;;;;;9.70;99.90;;;;;;5078150;28;19970;-89
2021/03/11 07:23:08;;;;;;;;;;;9.80;99.90;;;;;;5066322;28;19999;-87
2021/03/11 07:25:40;;;;;;;;;;;9.90;99.90;;;;;;5056682;28;20026;-89
2021/03/11 07:28:28;;;;;;;;;;;9.90;99.90;;;;;;5073938;28;20392;-89
2021/03/11 07:31:10;;;;;;;;;;;10.00;99.90;;;;;;5057729;28;19908;-88
2021/03/11 07:33:47;;;;;;;;;;;10.10;99.90;;;;;;5073636;28;19976;-87
2021/03/11 07:36:29;;;;;;;;;;;10.90;99.90;;;;;;5074375;28;19962;-89
2021/03/11 07:39:04;;;;;;;;;;;11.80;99.90;;;;;;5074596;28;19909;-89
2021/03/11 07:41:33;;;;;;;;;;;12.40;99.90;;;;;;5074783;28;20365;-90
2021/03/11 07:43:59;;;;;;;;;;;12.50;99.90;;;;;;5060182;28;20258;-87
2021/03/11 07:46:28;;;;;;;;;;;12.40;99.90;;;;;;5072456;28;19936;-87
2021/03/11 07:48:59;;;;;;;;;;;12.80;99.90;;;;;;5075306;28;19999;-87
2021/03/11 07:51:33;;;;;;;;;;;13.30;99.90;;;;;;5072056;28;19909;-88
2021/03/11 07:54:04;;;;;;;;;;;13.90;99.90;;;;;;5075211;28;20001;-87
2021/03/11 07:56:41;;;;;;;;;;;14.00;99.90;;;;;;5068578;28;19909;-87
2021/03/11 07:59:34;;;;;;;;;;;13.70;99.90;;;;;;5073818;28;19958;-86
2021/03/11 08:02:14;;;;;;;;;;;13.10;99.90;;;;;;5073345;28;19924;-86
2021/03/11 08:04:43;;;;;;;;;;;12.80;99.90;;;;;;5074415;28;19970;-87
2021/03/11 08:07:15;;;;;;;;;;;12.60;99.90;;;;;;5073078;28;19915;-88
2021/03/11 08:09:50;;;;;;;;;;;12.10;99.90;;;;;;5069731;28;19963;-87
2021/03/11 08:12:37;;;;;;;;;;;11.70;99.90;;;;;;5072019;28;20415;-87
2021/03/11 08:15:08;;;;;;;;;;;11.70;99.90;;;;;;5053341;28;19916;-86
2021/03/11 08:17:44;;;;;;;;;;;11.70;99.90;;;;;;5070025;28;19958;-87
2021/03/11 08:20:25;;;;;;;;;;;11.80;99.90;;;;;;5066534;28;19916;-87
2021/03/11 08:22:57;;;;;;;;;;;11.90;99.90;;;;;;5063563;28;19916;-89
2021/03/11 08:25:32;;;;;;;;;;;11.90;99.90;;;;;;5073713;28;19959;-88
2021/03/11 08:28:20;;;;;;;;;;;12.10;99.90;;;;;;5087142;28;19909;-87
2021/03/11 08:30:46;;;;;;;;;;;12.30;99.90;;;;;;5074206;28;19908;-87
2021/03/11 08:33:32;;;;;;;;;;;12.90;99.90;;;;;;5073470;28;19908;-88
2021/03/11 08:36:02;;;;;;;;;;;13.60;99.90;;;;;;5075455;28;19966;-88
2021/03/11 08:38:34;;;;;;;;;;;13.50;99.90;;;;;;5052958;28;19967;-87
2021/03/11 08:41:14;;;;;;;;;;;13.20;99.90;;;;;;5086494;28;19917;-85
2021/03/11 08:43:42;;;;;;;;;;;13.10;99.90;;;;;;5074182;28;19951;-87
2021/03/11 08:46:12;;;;;;;;;;;13.20;99.90;;;;;;5074093;28;19909;-88
2021/03/11 08:48:41;;;;;;;;;;;13.30;98.80;;;;;;5074346;28;19916;-85
2021/03/11 08:51:13;;;;;;;;;;;13.30;98.40;;;;;;5073805;28;19908;-87
2021/03/11 08:53:59;;;;;;;;;;;13.30;96.20;;;;;;5073479;28;19909;-87
2021/03/11 08:56:50;;;;;;;;;;;13.00;96.30;;;;;;5060697;28;19909;-88
2021/03/11 08:59:26;;;;;;;;;;;12.70;96.50;;;;;;5078879;28;19909;-87
2021/03/11 09:02:12;;;;;;;;;;;12.50;96.70;;;;;;5069717;28;20003;-89
2021/03/11 09:04:43;;;;;;;;;;;12.40;97.20;;;;;;5050585;28;19909;-87
2021/03/11 09:07:19;;;;;;;;;;;12.70;96.60;;;;;;5077635;28;19951;-88
2021/03/11 09:09:45;;;;;;;;;;;12.80;96.70;;;;;;5076252;28;19920;-88
2021/03/11 09:12:25;;;;;;;;;;;12.80;95.40;;;;;;5059660;28;19913;-86
2021/03/11 09:14:56;;;;;;;;;;;12.70;95.40;;;;;;5074124;28;19920;-88
2021/03/11 09:17:30;;;;;;;;;;;12.50;94.90;;;;;;5071109;28;20285;-88
2021/03/11 09:20:29;;;;;;;;;;;12.60;94.90;;;;;;5067665;28;19912;-86
2021/03/11 09:23:03;;;;;;;;;;;12.70;95.70;;;;;;5086221;28;20384;-89
2021/03/11 09:25:49;;;;;;;;;;;12.70;94.70;;;;;;5078226;28;19916;-89
2021/03/11 09:28:24;;;;;;;;;;;12.80;94.00;;;;;;5077951;28;19909;-88
2021/03/11 09:30:51;;;;;;;;;;;13.00;93.40;;;;;;5088616;28;19908;-86
2021/03/11 09:33:25;;;;;;;;;;;13.10;92.20;;;;;;5078245;28;19935;-87
2021/03/11 09:36:15;;;;;;;;;;;13.10;92.10;;;;;;5088447;28;19919;-87
2021/03/11 09:38:48;;;;;;;;;;;13.10;92.40;;;;;;5077978;28;19931;-87
2021/03/11 09:41:24;;;;;;;;;;;13.30;90.20;;;;;;5035589;28;19925;-88
2021/03/11 09:43:58;;;;;;;;;;;13.50;89.00;;;;;;5035802;28;19910;-87
2021/03/11 09:46:27;;;;;;;;;;;13.70;90.00;;;;;;5035151;28;20271;-87
2021/03/11 09:48:58;;;;;;;;;;;14.20;83.90;;;;;;5034874;28;19915;-87
2021/03/11 09:51:27;;;;;;;;;;;13.90;81.60;;;;;;5034562;28;19913;-87
2021/03/11 09:53:58;;;;;;;;;;;13.70;82.40;;;;;;5035060;28;19952;-86
2021/03/11 09:56:30;;;;;;;;;;;13.60;81.30;;;;;;5034711;28;19913;-87
2021/03/11 09:59:30;;;;;;;;;;;13.50;81.80;;;;;;5033194;28;19909;-89
2021/03/11 10:01:56;;;;;;;;;;;13.20;81.50;;;;;;5034843;28;19916;-87
2021/03/11 10:04:24;;;;;;;;;;;13.00;81.30;;;;;;5035251;28;19909;-88
2021/03/11 10:07:01;;;;;;;;;;;12.90;82.50;;;;;;5034373;28;20032;-85
2021/03/11 10:09:39;;;;;;;;;;;12.80;82.70;;;;;;5034303;28;20410;-88
2021/03/11 10:12:05;;;;;;;;;;;12.60;83.70;;;;;;5034119;28;19909;-89
2021/03/11 10:14:43;;;;;;;;;;;12.50;84.30;;;;;;5034743;28;20393;-87
2021/03/11 10:17:22;;;;;;;;;;;12.50;85.50;;;;;;5034891;28;19921;-86
2021/03/11 10:20:02;;;;;;;;;;;12.40;86.00;;;;;;5034905;28;19920;-89
2021/03/11 10:22:40;;;;;;;;;;;12.40;86.60;;;;;;5027517;28;20297;-90
2021/03/11 10:25:27;;;;;;;;;;;12.40;86.20;;;;;;5062120;28;19908;-88
2021/03/11 10:27:56;;;;;;;;;;;12.40;86.40;;;;;;5079177;28;19908;-87
2021/03/11 10:30:33;;;;;;;;;;;12.50;85.90;;;;;;5097735;28;19908;-91
2021/03/11 10:33:03;;;;;;;;;;;12.50;86.60;;;;;;5079885;28;20301;-91
2021/03/11 10:35:38;;;;;;;;;;;12.60;86.20;;;;;;5079842;28;19908;-90
2021/03/11 10:38:14;;;;;;;;;;;12.70;85.80;;;;;;5095572;28;20385;-89
2021/03/11 10:40:52;;;;;;;;;;;12.60;85.90;;;;;;5079527;28;19916;-91
2021/03/11 10:43:24;;;;;;;;;;;12.60;85.90;;;;;;5035383;28;19917;-90
2021/03/11 10:45:56;;;;;;;;;;;12.60;86.10;;;;;;5035459;28;20465;-90
2021/03/11 10:48:25;;;;;;;;;;;12.60;85.50;;;;;;5033945;28;19917;-88
2021/03/11 10:50:55;;;;;;;;;;;12.70;84.20;;;;;;5034789;28;19916;-90
2021/03/11 10:53:39;;;;;;;;;;;12.70;84.00;;;;;;5034268;28;20247;-86
2021/03/11 10:56:47;;;;;;;;;;;;;;;;;;;;;
2021/03/11 10:59:19;;;;;;;;;;;12.70;83.70;;;;;;5030347;28;19909;-88
2021/03/11 11:01:59;;;;;;;;;;;12.70;84.00;;;;;;5018065;28;20298;-89
2021/03/11 11:04:33;;;;;;;;;;;12.60;84.80;;;;;;5016770;28;19917;-89
2021/03/11 11:07:07;;;;;;;;;;;12.40;89.10;;;;;;5024235;28;19909;-88
2021/03/11 11:09:39;;;;;;;;;;;12.10;91.30;;;;;;5049740;28;19952;-88
2021/03/11 11:12:15;;;;;;;;;;;11.90;91.90;;;;;;5038329;28;20358;-89
2021/03/11 11:14:43;;;;;;;;;;;11.90;92.20;;;;;;5055236;28;19913;-89
2021/03/11 11:17:23;;;;;;;;;;;11.90;92.00;;;;;;5054998;28;19913;-90
2021/03/11 11:20:12;;;;;;;;;;;12.00;92.10;;;;;;5053475;28;20348;-90
2021/03/11 11:22:41;;;;;;;;;;;12.00;90.50;;;;;;5054260;28;20015;-89
2021/03/11 11:25:26;;;;;;;;;;;12.20;90.00;;;;;;5038181;28;19962;-89
2021/03/11 11:28:00;;;;;;;;;;;12.20;90.80;;;;;;5052675;28;20404;-89
2021/03/11 11:30:30;;;;;;;;;;;12.20;88.60;;;;;;5052194;28;20293;-87
2021/03/11 11:33:04;;;;;;;;;;;12.30;86.40;;;;;;5051057;28;19974;-87
2021/03/11 11:35:59;;;;;;;;;;;12.40;85.30;;;;;;5052060;28;19932;-90
2021/03/11 11:38:39;;;;;;;;;;;12.50;84.60;;;;;;5051910;28;19995;-87
2021/03/11 11:41:08;;;;;;;;;;;12.60;83.50;;;;;;5053021;28;19920;-90
2021/03/11 11:43:43;;;;;;;;;;;12.60;84.70;;;;;;5053487;28;20003;-89
2021/03/11 11:46:13;;;;;;;;;;;12.60;82.60;;;;;;5053074;28;19909;-88
2021/03/11 11:48:39;;;;;;;;;;;12.60;82.70;;;;;;5051053;28;20277;-89
2021/03/11 11:51:13;;;;;;;;;;;12.70;83.60;;;;;;5051270;28;19959;-89
2021/03/11 11:53:41;;;;;;;;;;;12.70;84.40;;;;;;5052769;28;20003;-88
2021/03/11 11:56:12;;;;;;;;;;;12.70;84.00;;;;;;5053719;28;19913;-87
2021/03/11 11:58:44;;;;;;;;;;;12.70;82.80;;;;;;5062151;28;19920;-89
2021/03/11 12:01:26;;;;;;;;;;;12.70;83.40;;;;;;5024609;28;19917;-88
2021/03/11 12:04:07;;;;;;;;;;;12.70;84.20;;;;;;5014532;28;19956;-88
2021/03/11 12:06:49;;;;;;;;;;;12.70;82.60;;;;;;5017949;28;19918;-87
2021/03/11 12:09:18;;;;;;;;;;;12.70;83.00;;;;;;5007758;28;19932;-87
2021/03/11 12:11:58;;;;;;;;;;;12.80;83.30;;;;;;5009549;28;19914;-90
2021/03/11 12:14:31;;;;;;;;;;;12.70;82.10;;;;;;5034129;28;19924;-86
2021/03/11 12:17:00;;;;;;;;;;;12.70;82.20;;;;;;5025368;28;20382;-90
2021/03/11 12:19:38;;;;;;;;;;;12.80;81.20;;;;;;5033717;28;19909;-91
2021/03/11 12:22:09;;;;;;;;;;;12.90;81.50;;;;;;5033934;28;20011;-91
2021/03/11 12:24:44;;;;;;;;;;;12.90;80.90;;;;;;5033074;28;19916;-90
2021/03/11 12:27:31;;;;;;;;;;;12.90;80.30;;;;;;5031651;28;19909;-89
2021/03/11 12:33:10;;;;;;;;;;;12.80;79.60;;;;;;5037569;28;19917;-89
2021/03/11 12:35:45;;;;;;;;;;;12.80;80.00;;;;;;5037205;28;20379;-89
2021/03/11 12:38:26;;;;;;;;;;;12.80;78.90;;;;;;5038551;28;20376;-91
2021/03/11 12:41:08;;;;;;;;;;;12.90;79.30;;;;;;5040690;28;19968;-89
2021/03/11 12:43:44;;;;;;;;;;;13.00;78.20;;;;;;5037695;28;19913;-88
2021/03/11 12:46:16;;;;;;;;;;;13.10;78.20;;;;;;5076569;28;19915;-90
2021/03/11 12:48:50;;;;;;;;;;;13.20;77.50;;;;;;5056504;28;19909;-91
2021/03/11 12:51:18;;;;;;;;;;;13.30;76.70;;;;;;4998438;28;19909;-92
2021/03/11 12:53:50;;;;;;;;;;;13.30;77.20;;;;;;4982909;28;19915;-92
2021/03/11 12:56:16;;;;;;;;;;;13.60;77.10;;;;;;4981092;28;20395;-93
2021/03/11 12:58:46;;;;;;;;;;;13.70;76.80;;;;;;4979844;28;19910;-93
2021/03/11 13:01:22;;;;;;;;;;;13.90;75.40;;;;;;4978538;28;19914;-88
2021/03/11 13:03:52;;;;;;;;;;;13.90;74.80;;;;;;4977759;28;19918;-89
2021/03/11 13:06:21;;;;;;;;;;;13.80;74.50;;;;;;4978629;28;19917;-92
2021/03/11 13:08:50;;;;;;;;;;;13.80;75.00;;;;;;4958760;28;19930;-89
2021/03/11 13:11:27;;;;;;;;;;;13.90;75.30;;;;;;4956735;29;20005;-91
2021/03/11 13:13:58;;;;;;;;;;;14.20;74.50;;;;;;4956799;28;19917;-92
2021/03/11 13:16:47;;;;;;;;;;;14.30;74.00;;;;;;4959084;29;19917;-91
2021/03/11 13:19:33;;;;;;;;;;;14.20;73.30;;;;;;4994326;28;20363;-90
2021/03/11 13:22:16;;;;;;;;;;;14.10;72.70;;;;;;5018060;28;20003;-88
2021/03/11 13:24:45;;;;;;;;;;;14.00;72.10;;;;;;5001917;28;19910;-91
2021/03/11 13:27:20;;;;;;;;;;;13.90;72.00;;;;;;5000846;28;19909;-91
2021/03/11 13:29:51;;;;;;;;;;;13.80;72.60;;;;;;5034021;28;19917;-89
2021/03/11 13:32:35;;;;;;;;;;;13.60;72.20;;;;;;5040384;28;19912;-91
2021/03/11 13:35:04;;;;;;;;;;;13.50;73.10;;;;;;5041537;28;19913;-90
2021/03/11 13:37:36;;;;;;;;;;;13.70;73.00;;;;;;5039138;28;19916;-89
2021/03/11 13:40:29;;;;;;;;;;;13.60;72.20;;;;;;5084792;28;20007;-90
2021/03/11 13:43:13;;;;;;;;;;;13.70;72.70;;;;;;5094493;28;19924;-88
2021/03/11 13:45:40;;;;;;;;;;;13.80;72.50;;;;;;5098191;28;19912;-91
2021/03/11 13:48:10;;;;;;;;;;;13.60;73.40;;;;;;5097630;28;19908;-92
2021/03/11 13:51:17;;;;;;;;;;;13.50;74.00;;;;;;5081070;28;19951;-93
2021/03/11 13:54:06;;;;;;;;;;;13.50;73.30;;;;;;5057690;28;20396;-91
2021/03/11 13:56:36;;;;;;;;;;;13.50;72.40;;;;;;5051536;28;19909;-91
2021/03/11 13:59:26;;;;;;;;;;;13.60;71.90;;;;;;5058513;28;19909;-90
2021/03/11 14:02:01;;;;;;;;;;;13.80;71.40;;;;;;5057882;28;19920;-92
2021/03/11 14:04:32;;;;;;;;;;;13.70;72.00;;;;;;5087550;28;19974;-94
2021/03/11 14:07:01;;;;;;;;;;;13.50;72.50;;;;;;5100437;28;20018;-93
2021/03/11 14:09:45;;;;;;;;;;;13.20;73.60;;;;;;5100972;28;20058;-91
2021/03/11 14:12:12;;;;;;;;;;;13.00;75.10;;;;;;5100605;28;19920;-90
2021/03/11 14:14:41;;;;;;;;;;;12.70;78.60;;;;;;5091258;28;20273;-88
2021/03/11 14:17:18;;;;;;;;;;;12.10;90.00;;;;;;5095238;28;20241;-90
2021/03/11 14:19:44;;;;;;;;;;;10.40;93.10;;;;;;5092042;28;19912;-88
2021/03/11 14:22:11;;;;;;;;;;;9.00;99.90;;;;;;5089230;28;20399;-90
2021/03/11 14:24:39;;;;;;;;;;;8.30;99.90;;;;;;5044701;28;19912;-87
2021/03/11 14:27:07;;;;;;;;;;;7.90;99.90;;;;;;5091878;28;19908;-88
2021/03/11 14:29:37;;;;;;;;;;;7.80;99.90;;;;;;5094592;28;19930;-87
2021/03/11 14:32:09;;;;;;;;;;;7.70;99.90;;;;;;5095834;28;19931;-88
2021/03/11 14:34:41;;;;;;;;;;;7.80;99.90;;;;;;5095574;28;19912;-88
2021/03/11 14:37:18;;;;;;;;;;;7.90;99.90;;;;;;5093807;28;19912;-88
2021/03/11 14:39:50;;;;;;;;;;;8.00;99.90;;;;;;5093254;28;19918;-88
2021/03/11 14:42:18;;;;;;;;;;;8.30;99.90;;;;;;5094155;28;20284;-88
2021/03/11 14:44:48;;;;;;;;;;;9.10;99.90;;;;;;5091074;28;19909;-89
2021/03/11 14:47:27;;;;;;;;;;;9.70;99.90;;;;;;5088494;28;19908;-91
2021/03/11 14:49:54;;;;;;;;;;;10.00;99.90;;;;;;5091665;28;19966;-90
2021/03/11 14:52:35;;;;;;;;;;;10.20;99.90;;;;;;5091292;28;19912;-91
2021/03/11 14:55:08;;;;;;;;;;;10.00;99.90;;;;;;5088188;28;19916;-90
2021/03/11 14:57:45;;;;;;;;;;;;;;;;;;;;;
2021/03/11 15:00:37;;;;;;;;;;;9.70;99.90;;;;;;5028124;28;20393;-89
2021/03/11 15:03:07;;;;;;;;;;;9.60;99.90;;;;;;5095454;28;19916;-91
2021/03/11 15:05:35;;;;;;;;;;;9.50;99.90;;;;;;5095266;28;19912;-90
2021/03/11 15:08:06;;;;;;;;;;;9.50;99.90;;;;;;5092951;28;19957;-90
2021/03/11 15:10:48;;;;;;;;;;;9.50;99.90;;;;;;5095060;28;20085;-91